Time;durP1;ratioP1;P1;durP2;ratioP2;P2;SDS_P1;SDS_P2;PMS_P1;PMS_P2;Temp;Humidity;BMP_temperature;BMP_pressure;BME280_temperature;BME280_humidity;BME280_pressure;Samples;Min_cycle;Max_cycle;Signal;HPM_P1;HPM_P2
2022/08/21 00:03:11;;;;;;;4.38;3.97;;;20.20;99.90;;;18.83;97.00;99453.22;10244119;28;97628;-87
2022/08/21 00:08:14;;;;;;;4.40;3.97;;;20.20;99.90;;;18.81;96.98;99454.50;10281636;28;98342;-87
2022/08/21 00:13:19;;;;;;;9.77;4.18;;;20.20;99.90;;;18.76;97.20;99455.22;10280927;28;96887;-86
2022/08/21 00:18:24;;;;;;;4.82;3.90;;;20.10;99.90;;;18.73;97.38;99446.81;10255190;28;98247;-87
2022/08/21 00:23:26;;;;;;;10.20;4.30;;;20.10;99.90;;;18.70;97.62;99443.53;10263784;28;98495;-88
2022/08/21 00:28:30;;;;;;;7.25;3.92;;;20.10;99.90;;;18.69;97.77;99443.78;10267340;28;96595;-89
2022/08/21 00:33:33;;;;;;;3.85;3.47;;;20.10;99.90;;;18.70;97.92;99442.72;10266695;28;96991;-88
2022/08/21 00:38:36;;;;;;;5.07;3.53;;;20.10;99.90;;;18.70;98.12;99445.41;10276919;28;98464;-88
2022/08/21 00:43:40;;;;;;;6.38;3.92;;;20.10;99.90;;;18.69;98.14;99436.53;10266639;28;96986;-89
2022/08/21 00:48:43;;;;;;;5.43;3.95;;;20.10;99.90;;;18.66;97.76;99446.94;10256242;28;97297;-83
2022/08/21 00:53:46;;;;;;;5.05;4.55;;;20.10;99.90;;;18.61;97.34;99446.81;10282986;28;96687;-87
2022/08/21 00:58:58;;;;;;;6.75;4.40;;;20.00;99.90;;;18.57;98.01;99442.97;10259233;28;97388;-86
2022/08/21 01:04:01;;;;;;;4.32;3.80;;;20.00;99.90;;;18.54;98.05;99440.78;10257490;28;98533;-86
2022/08/21 01:09:04;;;;;;;6.15;5.00;;;20.00;99.90;;;18.52;97.92;99442.88;10270079;28;96765;-86
2022/08/21 01:14:07;;;;;;;5.97;5.05;;;19.90;99.90;;;18.47;97.69;99432.81;10267247;28;97364;-87
2022/08/21 01:19:11;;;;;;;5.60;5.10;;;19.90;99.90;;;18.42;97.84;99430.03;10253766;28;97079;-88
2022/08/21 01:24:14;;;;;;;5.57;4.60;;;19.80;99.90;;;18.37;97.79;99430.75;10264267;28;96963;-87
2022/08/21 01:29:43;;;;;;;7.43;5.53;;;19.80;99.90;;;18.36;97.98;99423.72;10255005;28;96807;-88
2022/08/21 01:34:48;;;;;;;6.75;5.40;;;19.80;99.90;;;18.34;98.12;99430.38;10247218;28;98460;-88
2022/08/21 01:39:51;;;;;;;5.55;5.05;;;19.80;99.90;;;18.34;98.48;99436.59;10269449;28;97088;-88
2022/08/21 01:44:54;;;;;;;8.27;5.72;;;19.70;99.90;;;18.31;98.14;99430.88;10292317;28;98437;-86
2022/08/21 01:49:58;;;;;;;7.28;5.80;;;19.70;99.90;;;18.28;98.62;99426.78;10287580;28;96667;-87
2022/08/21 01:55:02;;;;;;;5.90;5.30;;;19.70;99.90;;;18.30;98.60;99430.06;10292398;28;97090;-87
2022/08/21 02:00:10;;;;;;;6.45;5.50;;;19.70;99.90;;;18.30;98.94;99421.19;10273438;28;97133;-87
2022/08/21 02:05:13;;;;;;;7.38;5.40;;;19.80;99.90;;;18.30;98.62;99421.19;10269362;28;98074;-87
2022/08/21 02:10:27;;;;;;;7.03;5.85;;;19.70;99.90;;;18.28;99.07;99421.41;10279673;28;96997;-87
2022/08/21 02:15:31;;;;;;;5.90;5.18;;;19.70;99.90;;;18.28;99.03;99426.78;10284687;28;97405;-87
2022/08/21 02:20:48;;;;;;;6.05;5.32;;;19.70;99.90;;;18.27;98.98;99416.25;10263692;28;98234;-88
2022/08/21 02:26:01;;;;;;;8.85;5.90;;;19.70;99.90;;;18.25;99.03;99429.13;10274712;28;96777;-87
2022/08/21 02:31:06;;;;;;;8.77;6.68;;;19.70;99.90;;;18.23;98.99;99434.72;10251851;28;97604;-87
2022/08/21 02:36:11;;;;;;;10.20;6.28;;;19.70;99.90;;;18.17;99.16;99424.91;10267107;28;98527;-86
2022/08/21 02:41:20;;;;;;;9.63;6.15;;;19.60;99.90;;;18.15;99.07;99414.41;10254265;28;97362;-88
2022/08/21 02:46:23;;;;;;;8.53;6.83;;;19.60;99.90;;;18.12;99.38;99414.88;10255633;28;96782;-87
2022/08/21 02:51:26;;;;;;;8.60;6.47;;;19.50;99.90;;;18.10;99.23;99421.53;10274616;28;98392;-86
2022/08/21 02:56:29;;;;;;;8.70;6.15;;;19.50;99.90;;;18.08;99.50;99429.03;10258211;28;96773;-86
2022/08/21 03:01:33;;;;;;;10.40;6.20;;;19.50;99.90;;;18.05;99.67;99426.81;10269882;28;98315;-86
2022/08/21 03:06:36;;;;;;;7.53;5.82;;;19.50;99.90;;;18.04;99.47;99417.09;10266451;28;98296;-86
2022/08/21 03:11:39;;;;;;;8.38;5.97;;;19.50;99.90;;;18.04;99.51;99417.91;10262981;28;97723;-86
2022/08/21 03:16:42;;;;;;;7.72;6.00;;;19.50;99.90;;;18.01;99.48;99421.09;10285212;28;96938;-87
2022/08/21 03:21:45;;;;;;;9.60;7.40;;;19.40;99.90;;;17.99;99.80;99409.75;10281439;28;97228;-87
2022/08/21 03:26:48;;;;;;;8.05;6.45;;;19.40;99.90;;;17.97;99.88;99411.03;10288026;28;97312;-87
2022/08/21 03:31:53;;;;;;;8.43;6.95;;;19.40;99.90;;;17.98;100.00;99424.22;10271677;28;97295;-87
2022/08/21 03:36:56;;;;;;;9.10;6.45;;;19.40;99.90;;;17.99;99.69;99425.06;10268460;28;98504;-86
2022/08/21 03:41:59;;;;;;;8.70;6.47;;;19.40;99.90;;;17.99;99.83;99425.06;10252810;28;97587;-87
2022/08/21 03:47:03;;;;;;;8.45;6.72;;;19.40;99.90;;;18.00;99.84;99426.72;10266134;28;97051;-86
2022/08/21 03:52:07;;;;;;;8.90;6.68;;;19.40;99.90;;;18.00;99.96;99416.78;10264215;28;97246;-85
2022/08/21 03:57:10;;;;;;;9.13;6.97;;;19.40;99.90;;;18.01;99.92;99417.59;10289627;28;98640;-86
2022/08/21 04:02:18;;;;;;;9.63;7.28;;;19.40;99.90;;;18.03;100.00;99426.22;10262768;28;97287;-86
2022/08/21 04:07:21;;;;;;;10.02;7.90;;;19.40;99.90;;;18.03;100.00;99428.91;10270697;28;96719;-89
2022/08/21 04:12:23;;;;;;;9.07;7.68;;;19.40;99.90;;;18.05;99.93;99434.88;10269786;28;98304;-88
2022/08/21 04:17:27;;;;;;;7.57;6.70;;;19.40;99.90;;;18.07;100.00;99444.34;10268129;28;98044;-89
2022/08/21 04:22:31;;;;;;;8.43;7.50;;;19.40;99.90;;;18.11;100.00;99445.53;10283930;28;98502;-84
2022/08/21 04:27:34;;;;;;;9.15;7.30;;;19.50;99.90;;;18.14;100.00;99450.41;10287230;28;96934;-83
2022/08/21 04:32:41;;;;;;;9.55;7.18;;;19.50;99.90;;;18.18;100.00;99450.78;10277564;28;98483;-90
2022/08/21 04:37:44;;;;;;;9.93;7.13;;;19.60;99.90;;;18.23;100.00;99458.94;10229538;28;97551;-91
2022/08/21 04:42:50;;;;;;;9.70;6.90;;;19.60;99.90;;;18.28;100.00;99458.22;10266463;28;98095;-90
2022/08/21 04:47:58;;;;;;;10.85;7.55;;;19.70;99.90;;;18.32;99.92;99462.09;10245474;28;97448;-90
2022/08/21 04:53:01;;;;;;;8.98;7.72;;;19.70;99.90;;;18.35;99.67;99465.13;10260728;28;96984;-85
2022/08/21 04:58:08;;;;;;;8.10;6.20;;;19.70;99.90;;;18.40;99.54;99473.28;10262075;28;98523;-86
2022/08/21 05:03:13;;;;;;;8.63;6.22;;;19.80;99.90;;;18.43;99.34;99467.44;10271849;28;98468;-91
2022/08/21 05:08:21;;;;;;;8.45;5.80;;;19.80;99.90;;;18.51;99.40;99476.22;10266449;28;98792;-88
2022/08/21 05:13:24;;;;;;;6.93;6.22;;;19.90;99.90;;;18.58;99.10;99479.56;10240051;28;96747;-85
2022/08/21 05:18:27;;;;;;;7.35;5.80;;;19.90;99.90;;;18.59;98.47;99478.50;10260215;28;97511;-88
2022/08/21 05:23:32;;;;;;;6.68;5.50;;;20.00;99.90;;;18.62;98.15;99478.88;10245786;28;97317;-87
2022/08/21 05:28:35;;;;;;;6.35;5.35;;;20.00;99.90;;;18.68;97.71;99474.44;10250126;28;98129;-85
2022/08/21 05:33:38;;;;;;;6.50;5.80;;;20.00;99.90;;;18.66;97.23;99479.22;10260851;28;97334;-86
2022/08/21 05:38:46;;;;;;;8.35;5.25;;;20.00;99.90;;;18.68;97.00;99479.81;10264711;28;98100;-86
2022/08/21 05:43:49;;;;;;;6.25;4.68;;;20.10;99.90;;;18.70;96.74;99475.00;10283511;28;97143;-87
2022/08/21 05:48:52;;;;;;;5.18;4.68;;;20.10;99.90;;;18.75;96.24;99469.75;10281980;28;96944;-88
2022/08/21 05:53:55;;;;;;;5.07;4.57;;;20.10;99.90;;;18.80;96.04;99485.19;10263741;28;97193;-90
2022/08/21 05:58:58;;;;;;;7.78;4.90;;;20.20;99.90;;;18.84;95.55;99478.28;10271358;28;96798;-88
2022/08/21 06:04:01;;;;;;;5.47;4.93;;;20.20;99.90;;;18.90;95.55;99480.81;10265343;28;96711;-88
2022/08/21 06:09:05;;;;;;;4.97;3.80;;;20.30;99.90;;;18.94;95.10;99475.75;10245104;28;98587;-86
2022/08/21 06:14:08;;;;;;;5.13;4.63;;;20.30;99.90;;;19.00;94.95;99469.41;10236618;28;97201;-87
2022/08/21 06:19:11;;;;;;;6.97;4.68;;;20.40;99.90;;;19.06;94.27;99473.84;10288865;28;98549;-87
2022/08/21 06:24:14;;;;;;;5.60;4.00;;;20.40;99.90;;;19.14;94.62;99469.97;10266589;28;96730;-90
2022/08/21 06:29:19;;;;;;;6.10;4.20;;;20.50;99.90;;;19.27;94.32;99480.44;10287729;28;96850;-91
2022/08/21 06:34:22;;;;;;;5.22;4.50;;;20.60;99.90;;;19.41;94.49;99478.25;10247729;28;97427;-91
2022/08/21 06:39:25;;;;;;;5.45;4.05;;;20.80;99.90;;;19.55;94.37;99473.34;10292317;28;97235;-90
2022/08/21 06:44:32;;;;;;;4.68;4.07;;;21.00;99.90;;;19.66;94.08;99478.69;10276381;28;96678;-91
2022/08/21 06:49:36;;;;;;;5.63;4.07;;;21.10;99.90;;;19.77;93.23;99482.38;10265252;28;97092;-91
2022/08/21 06:54:40;;;;;;;4.30;3.90;;;21.30;99.90;;;19.90;93.10;99486.63;10268992;28;96654;-90
2022/08/21 06:59:43;;;;;;;5.07;3.42;;;21.40;99.90;;;20.07;93.09;99483.91;10255993;28;96903;-91
2022/08/21 07:04:46;;;;;;;4.75;4.03;;;21.60;99.90;;;20.13;91.75;99491.81;10277052;28;96496;-90
2022/08/21 07:09:49;;;;;;;4.82;3.53;;;21.70;99.90;;;20.26;91.59;99485.25;10277128;28;97332;-91
2022/08/21 07:14:51;;;;;;;7.82;4.07;;;21.70;99.90;;;20.40;90.41;99489.25;10287440;28;96793;-91
2022/08/21 07:19:54;;;;;;;6.28;4.22;;;21.90;99.90;;;20.57;89.78;99483.81;10289748;28;96670;-91
2022/08/21 07:24:57;;;;;;;4.38;3.97;;;22.00;99.90;;;20.71;88.46;99474.28;10285215;28;98342;-90
2022/08/21 07:30:00;;;;;;;3.88;3.30;;;22.20;99.90;;;20.85;87.91;99469.31;10277615;28;97242;-90
2022/08/21 07:35:03;;;;;;;5.97;4.40;;;22.30;99.90;;;20.96;86.72;99476.47;10263604;28;98199;-89
2022/08/21 07:40:07;;;;;;;4.53;3.75;;;22.40;99.90;;;21.05;86.11;99474.13;10271368;28;96805;-91
2022/08/21 07:45:11;;;;;;;4.55;3.85;;;22.50;99.90;;;21.12;85.00;99469.34;10270202;28;96608;-90
2022/08/21 07:50:15;;;;;;;4.15;3.75;;;22.50;99.90;;;21.15;83.92;99468.00;10281271;28;96746;-91
2022/08/21 07:55:21;;;;;;;6.13;4.00;;;22.60;99.90;;;21.17;83.47;99466.72;10238559;28;96928;-90
2022/08/21 08:00:27;;;;;;;5.68;3.92;;;22.60;99.90;;;21.20;83.36;99455.38;10242252;28;96650;-90
2022/08/21 08:05:31;;;;;;;8.85;4.00;;;22.60;99.90;;;21.32;83.04;99447.94;10262068;28;96755;-92
2022/08/21 08:10:35;;;;;;;5.93;4.10;;;22.70;99.90;;;21.53;83.06;99451.66;10247660;28;98113;-91
2022/08/21 08:15:38;;;;;;;5.38;4.13;;;22.90;99.90;;;21.77;82.44;99441.31;10262740;28;97353;-90
2022/08/21 08:20:41;;;;;;;5.78;3.70;;;23.10;99.90;;;22.00;80.99;99439.28;10275228;28;96883;-90
2022/08/21 08:25:44;;;;;;;5.95;3.80;;;23.30;99.90;;;22.20;80.21;99425.09;10275872;28;97306;-90
2022/08/21 08:30:49;;;;;;;4.95;3.90;;;23.60;99.90;;;22.38;79.23;99430.06;10252094;28;96551;-90
2022/08/21 08:35:52;;;;;;;5.50;3.67;;;23.70;99.90;;;22.44;78.15;99431.72;10282419;28;99101;-90
2022/08/21 08:41:12;;;;;;;4.50;3.80;;;23.90;99.90;;;22.37;77.34;99428.41;10263439;28;96832;-90
2022/08/21 08:46:18;;;;;;;6.28;3.90;;;23.80;99.90;;;22.32;77.33;99436.53;10258513;28;97154;-91
2022/08/21 08:51:32;;;;;;;5.30;4.07;;;23.70;99.90;;;22.25;77.21;99425.94;10270312;28;98253;-91
2022/08/21 08:56:36;;;;;;;5.68;4.28;;;23.70;99.90;;;22.21;77.08;99422.13;10272210;28;97337;-90
2022/08/21 09:01:39;;;;;;;6.30;4.60;;;23.60;99.90;;;22.32;78.28;99425.69;10272361;28;97001;-90
2022/08/21 09:07:25;;;;;;;6.70;4.80;;;23.70;99.90;;;22.51;77.45;99426.84;10269808;28;96782;-90
2022/08/21 09:12:39;;;;;;;7.85;4.97;;;23.90;99.90;;;22.58;76.18;99427.41;10299800;28;96640;-91
2022/08/21 09:18:09;;;;;;;7.15;5.30;;;24.00;99.90;;;22.64;76.30;99429.06;10243853;28;98299;-91
2022/08/21 09:23:49;;;;;;;6.15;5.18;;;24.00;99.90;;;22.74;75.68;99424.78;10280609;28;96884;-91
2022/08/21 09:28:57;;;;;;;5.53;4.30;;;24.10;99.90;;;22.81;75.35;99430.75;10285241;28;96835;-91
2022/08/21 09:34:08;;;;;;;5.85;5.25;;;24.10;99.90;;;22.81;74.78;99430.75;10266689;28;98005;-90
2022/08/21 09:39:30;;;;;;;9.00;5.22;;;24.20;99.90;;;22.85;74.82;99421.00;10255195;28;96675;-90
2022/08/21 09:44:40;;;;;;;5.47;4.75;;;24.20;99.90;;;22.84;74.58;99420.19;10265385;28;96659;-90
2022/08/21 09:49:43;;;;;;;5.80;4.40;;;24.20;99.90;;;22.87;75.17;99425.09;10262251;28;96953;-91
2022/08/21 09:54:54;;;;;;;5.03;4.53;;;24.30;99.90;;;22.88;74.31;99420.50;10264003;28;96747;-90
2022/08/21 10:00:22;;;;;;;5.65;5.00;;;24.30;99.90;;;22.83;74.31;99423.97;10259592;28;98602;-91
2022/08/21 10:05:27;;;;;;;6.00;4.63;;;24.30;99.90;;;22.82;75.03;99430.47;10288532;28;98479;-91
2022/08/21 10:10:35;;;;;;;6.07;4.53;;;24.20;99.90;;;22.79;74.52;99436.44;10274317;28;97055;-90
2022/08/21 10:16:01;;;;;;;;;;;24.20;99.90;;;22.70;73.58;99436.13;10271021;28;98328;-92
2022/08/21 10:21:25;;;;;;;4.72;4.32;;;24.20;99.90;;;22.64;74.32;99434.47;10284691;28;98244;-90
2022/08/21 10:26:35;;;;;;;5.80;5.20;;;24.10;99.90;;;22.59;74.67;99437.16;10291934;28;98357;-91
2022/08/21 10:32:02;;;;;;;6.07;4.70;;;24.10;99.90;;;22.56;74.70;99436.91;10269959;28;97462;-91
2022/08/21 10:37:36;;;;;;;6.28;4.03;;;24.00;99.90;;;22.53;74.96;99440.94;10278794;28;98587;-92
2022/08/21 10:42:57;;;;;;;5.60;4.63;;;23.90;99.90;;;22.50;74.96;99441.47;10289366;28;99496;-92
2022/08/21 10:48:07;;;;;;;7.05;5.10;;;23.90;99.90;;;22.46;74.83;99437.66;10287714;28;98299;-90
2022/08/21 10:53:34;;;;;;;6.57;5.15;;;23.90;99.90;;;22.44;74.58;99437.94;10252450;28;98057;-90
2022/08/21 10:58:49;;;;;;;4.95;4.45;;;23.80;99.90;;;22.43;74.67;99438.16;10264199;28;97886;-85
2022/08/21 11:04:08;;;;;;;6.53;5.00;;;23.80;99.90;;;22.48;75.93;99435.50;10261469;28;98113;-84
2022/08/21 11:09:17;;;;;;;5.28;4.03;;;23.80;99.90;;;22.53;75.81;99423.88;10269806;28;97015;-86
2022/08/21 11:14:48;;;;;;;5.88;4.45;;;23.90;99.90;;;22.60;75.32;99425.25;10265523;28;97668;-87
2022/08/21 11:20:37;;;;;;;5.63;4.07;;;24.00;99.90;;;22.73;75.42;99429.38;10266816;28;96932;-86
2022/08/21 11:25:46;;;;;;;5.15;4.00;;;24.10;99.90;;;22.95;74.37;99421.88;10247975;28;97544;-87
2022/08/21 11:31:43;;;;;;;5.33;4.20;;;24.40;99.90;;;23.18;73.22;99415.13;10266490;28;96775;-86
2022/08/21 11:37:37;;;;;;;5.78;4.00;;;24.60;99.90;;;23.44;72.49;99409.72;10242928;28;96944;-85
2022/08/21 11:43:10;;;;;;;7.93;4.70;;;25.00;99.90;;;23.48;71.32;99413.50;10284453;28;96642;-86
2022/08/21 11:49:04;;;;;;;5.40;4.15;;;25.00;99.90;;;23.41;71.21;99404.84;10266933;28;98259;-86
2022/08/21 11:54:34;;;;;;;5.35;4.30;;;24.90;99.90;;;23.43;70.96;99408.91;10271285;28;98730;-87
2022/08/21 11:59:57;;;;;;;4.93;4.43;;;24.80;99.90;;;23.45;70.48;99400.47;10290234;28;96773;-86
2022/08/21 12:05:07;;;;;;;6.53;5.05;;;24.80;99.90;;;23.53;70.04;99393.72;10269628;28;97322;-87
2022/08/21 12:10:20;;;;;;;5.55;4.10;;;24.80;99.90;;;23.61;70.46;99399.41;10284985;28;97568;-86
2022/08/21 12:15:28;;;;;;;4.40;4.00;;;25.00;99.90;;;23.75;70.46;99388.84;10268090;28;96524;-88
2022/08/21 12:20:56;;;;;;;6.82;4.25;;;25.10;99.90;;;23.89;69.69;99378.25;10253663;28;97095;-88
2022/08/21 12:26:31;;;;;;;5.13;4.22;;;25.30;99.90;;;24.02;69.32;99383.09;10276032;28;97481;-86
2022/08/21 12:31:34;;;;;;;5.30;4.28;;;25.40;99.90;;;24.01;68.78;99382.28;10274137;28;96662;-87
2022/08/21 12:37:14;;;;;;;5.47;4.50;;;25.40;99.90;;;24.02;69.18;99367.59;10261229;28;96790;-86
2022/08/21 12:42:31;;;;;;;5.07;3.67;;;25.50;99.90;;;23.98;68.98;99379.28;10248280;28;98362;-86
2022/08/21 12:48:03;;;;;;;5.03;4.30;;;25.40;99.90;;;23.87;68.41;99364.97;10273831;28;96683;-86
2022/08/21 12:53:15;;;;;;;6.30;4.38;;;25.40;99.90;;;23.67;69.11;99368.50;10248977;28;96770;-88
2022/08/21 12:58:24;;;;;;;5.20;4.10;;;25.30;99.90;;;23.56;70.68;99358.72;10260840;28;97231;-87
2022/08/21 13:03:28;;;;;;;5.82;4.10;;;25.10;99.90;;;23.44;72.14;99358.19;10266856;28;98424;-86
2022/08/21 13:08:36;;;;;;;5.10;4.60;;;25.00;99.90;;;23.35;73.84;99360.66;10247649;28;97330;-85
2022/08/21 13:13:50;;;;;;;6.50;4.82;;;24.80;99.90;;;23.30;74.23;99349.81;10260833;28;98625;-88
2022/08/21 13:19:08;;;;;;;8.20;5.07;;;24.70;99.90;;;23.22;74.27;99348.47;10265670;28;96610;-93
2022/08/21 13:24:29;;;;;;;6.53;4.57;;;24.60;99.90;;;23.20;74.54;99352.50;10262305;28;98518;-92
2022/08/21 13:29:47;;;;;;;5.47;4.53;;;24.60;99.90;;;23.17;74.13;99359.31;10268334;28;96828;-92
2022/08/21 13:34:57;;;;;;;6.90;4.85;;;24.50;99.90;;;23.17;74.36;99350.38;10255522;28;98689;-91
2022/08/21 13:40:00;;;;;;;2.97;2.55;;;24.50;99.90;;;23.09;73.96;99340.03;10256541;28;97403;-91
2022/08/21 13:45:04;;;;;;;3.13;2.20;;;24.60;99.90;;;22.94;74.35;99338.97;10258770;28;97218;-92
2022/08/21 13:50:08;;;;;;;3.40;2.33;;;24.50;99.90;;;22.85;74.63;99334.31;10267169;28;96842;-91
2022/08/21 13:55:17;;;;;;;2.72;2.47;;;24.30;99.90;;;22.65;73.58;99341.31;10254805;28;97384;-95
2022/08/21 14:00:28;;;;;;;2.40;2.20;;;24.00;99.90;;;22.54;73.83;99333.44;10270684;28;97142;-94
2022/08/21 14:05:35;;;;;;;3.72;2.33;;;23.80;99.90;;;22.43;74.61;99332.59;10263183;28;96991;-89
2022/08/21 14:10:47;;;;;;;3.10;2.05;;;23.70;99.90;;;22.40;75.22;99335.84;10294483;28;99914;-93
2022/08/21 14:16:01;;;;;;;3.83;2.28;;;23.70;99.90;;;22.32;74.91;99329.06;10248334;28;96712;-95
2022/08/21 14:21:09;;;;;;;3.63;2.30;;;23.60;99.90;;;22.25;75.03;99338.50;10256063;28;98017;-94
2022/08/21 14:26:12;;;;;;;2.85;1.90;;;23.50;99.90;;;22.17;74.90;99335.22;10267768;28;98362;-95
2022/08/21 14:31:20;;;;;;;2.72;1.77;;;23.40;99.90;;;22.11;75.67;99330.88;10258429;28;98810;-93
2022/08/21 14:36:24;;;;;;;2.15;1.83;;;23.40;99.90;;;22.09;75.21;99333.03;10266456;28;96913;-92
2022/08/21 14:41:29;;;;;;;3.97;1.67;;;23.40;99.90;;;22.06;75.24;99336.22;10263353;28;98312;-92
2022/08/21 14:46:35;;;;;;;2.65;1.65;;;23.30;99.90;;;22.02;75.43;99337.03;10248392;28;97978;-91
2022/08/21 14:51:48;;;;;;;4.75;1.60;;;23.30;99.90;;;21.97;75.65;99343.25;10254155;28;96752;-92
2022/08/21 14:56:59;;;;;;;3.35;1.40;;;23.30;99.90;;;21.95;75.74;99347.25;10257986;28;97115;-94
2022/08/21 15:02:06;;;;;;;2.67;1.52;;;23.30;99.90;;;21.96;76.27;99338.91;10281030;28;96653;-91
2022/08/21 15:07:09;;;;;;;1.55;1.20;;;23.30;99.90;;;21.95;76.58;99342.69;10244237;28;97172;-90
2022/08/21 15:12:14;;;;;;;1.75;1.38;;;23.30;99.90;;;21.92;76.75;99333.19;10259942;28;98444;-92
2022/08/21 15:17:17;;;;;;;2.75;1.30;;;23.30;99.90;;;21.85;76.74;99327.22;10269836;28;96746;-94
2022/08/21 15:22:20;;;;;;;1.65;1.10;;;23.20;99.90;;;21.79;77.57;99328.28;10258412;28;97521;-91
2022/08/21 15:27:31;;;;;;;1.45;1.05;;;23.10;99.90;;;21.75;78.31;99327.16;10258408;28;96683;-92
2022/08/21 15:32:33;;;;;;;3.17;1.00;;;23.10;99.90;;;21.69;78.83;99330.09;10273458;28;97779;-93
2022/08/21 15:37:36;;;;;;;2.25;1.27;;;23.10;99.90;;;21.61;79.26;99326.81;10273855;28;96635;-95
2022/08/21 15:42:41;;;;;;;1.50;1.35;;;23.00;99.90;;;21.56;80.06;99329.47;10242507;28;97863;-94
2022/08/21 15:47:45;;;;;;;1.98;1.30;;;22.90;99.90;;;21.46;80.38;99334.00;10261433;28;98580;-94
2022/08/21 15:52:51;;;;;;;1.65;1.48;;;22.80;99.90;;;21.41;81.01;99342.91;10264277;28;97513;-93
2022/08/21 15:57:56;;;;;;;1.85;1.30;;;22.80;99.90;;;21.31;82.09;99345.53;10264565;28;97052;-95
2022/08/21 16:03:06;;;;;;;2.90;1.70;;;22.70;99.90;;;21.15;83.25;99349.16;10262450;28;97129;-89
2022/08/21 16:08:10;;;;;;;2.85;1.92;;;22.50;99.90;;;20.92;84.15;99356.50;10260067;28;97318;-93
2022/08/21 16:13:31;;;;;;;2.50;1.90;;;22.30;99.90;;;20.66;85.86;99354.63;10265839;28;98452;-91
2022/08/21 16:18:34;;;;;;;2.78;2.00;;;22.10;99.90;;;20.44;87.41;99354.63;10279289;28;98400;-90
2022/08/21 16:23:39;;;;;;;6.25;2.58;;;21.90;99.90;;;20.23;88.54;99353.59;10265769;28;97273;-94
2022/08/21 16:28:45;;;;;;;3.03;2.42;;;21.70;99.90;;;20.09;89.93;99363.09;10269419;28;98160;-92
2022/08/21 16:33:55;;;;;;;3.70;2.70;;;21.50;99.90;;;19.90;91.14;99366.09;10239551;28;97426;-91
2022/08/21 16:39:00;;;;;;;6.90;2.40;;;21.40;99.90;;;19.77;92.42;99355.69;10284392;28;98464;-92
2022/08/21 16:44:05;;;;;;;6.50;3.38;;;21.20;99.90;;;19.68;93.48;99362.56;10260048;28;97758;-94
2022/08/21 16:49:09;;;;;;;4.32;3.13;;;21.10;99.90;;;19.63;95.05;99367.88;10259062;28;97253;-94
2022/08/21 16:54:12;;;;;;;5.13;3.97;;;21.00;99.90;;;19.60;95.52;99365.66;10269962;28;97095;-93
2022/08/21 16:59:16;;;;;;;4.78;3.28;;;21.10;99.90;;;19.57;96.18;99360.75;10270014;28;98267;-89
2022/08/21 17:04:19;;;;;;;5.32;3.05;;;21.00;99.90;;;19.55;97.46;99346.69;10254212;28;96716;-90
2022/08/21 17:09:22;;;;;;;6.32;3.40;;;21.00;99.90;;;19.53;97.64;99355.03;10269623;28;96607;-91
2022/08/21 17:14:25;;;;;;;4.43;3.47;;;21.00;99.90;;;19.48;98.48;99344.97;10255855;28;97075;-91
2022/08/21 17:19:28;;;;;;;4.63;3.15;;;20.90;99.90;;;19.44;98.41;99345.75;10251853;28;96974;-92
2022/08/21 17:24:31;;;;;;;4.50;3.35;;;20.90;99.90;;;19.34;99.29;99349.09;10280771;28;96742;-91
2022/08/21 17:29:38;;;;;;;5.78;3.88;;;20.80;99.90;;;19.28;99.26;99354.66;10278191;28;96696;-87
2022/08/21 17:34:41;;;;;;;4.60;3.40;;;20.70;99.90;;;19.21;100.00;99352.13;10241050;28;97647;-87
2022/08/21 17:39:44;;;;;;;4.78;3.60;;;20.70;99.90;;;19.14;100.00;99352.28;10266357;28;98794;-83
2022/08/21 17:44:47;;;;;;;4.38;3.53;;;20.50;99.90;;;19.08;100.00;99349.75;10261646;28;98694;-85
2022/08/21 17:49:50;;;;;;;4.57;3.40;;;20.50;99.90;;;19.02;100.00;99362.31;10266829;28;96795;-86
2022/08/21 17:54:53;;;;;;;4.30;3.40;;;20.40;99.90;;;18.95;100.00;99359.78;10258927;28;98520;-87
2022/08/21 17:59:57;;;;;;;4.03;3.25;;;20.30;99.90;;;18.91;100.00;99355.94;10259134;28;96729;-87
2022/08/21 18:05:00;;;;;;;4.72;3.17;;;20.30;99.90;;;18.87;100.00;99352.06;10263000;28;96802;-88
2022/08/21 18:10:12;;;;;;;5.50;3.72;;;20.20;99.90;;;18.86;100.00;99353.13;10266988;28;97275;-87
2022/08/21 18:15:18;;;;;;;4.60;3.20;;;20.20;99.90;;;18.85;100.00;99351.50;10287023;28;96810;-90
2022/08/21 18:20:23;;;;;;;4.30;3.40;;;20.20;99.90;;;18.88;100.00;99364.47;10259767;28;96784;-89
2022/08/21 18:25:27;;;;;;;4.32;3.13;;;20.20;99.90;;;18.92;100.00;99365.63;10267710;28;97466;-89
2022/08/21 18:30:33;;;;;;;5.47;3.50;;;20.30;99.90;;;18.97;100.00;99363.03;10269106;28;98715;-89
2022/08/21 18:35:36;;;;;;;7.88;3.67;;;20.30;99.90;;;19.01;100.00;99373.28;10269159;28;96892;-89
2022/08/21 18:40:48;;;;;;;4.63;3.35;;;20.40;99.90;;;19.01;100.00;99368.72;10283604;28;98321;-89
2022/08/21 18:45:57;;;;;;;4.82;3.15;;;20.40;99.90;;;18.98;100.00;99367.34;10254687;28;98510;-89
2022/08/21 18:51:00;;;;;;;2.97;2.30;;;20.40;99.90;;;18.96;100.00;99368.66;10252005;28;96731;-86
2022/08/21 18:56:05;;;;;;;3.22;2.45;;;20.30;99.90;;;18.87;100.00;99368.22;10265454;28;96700;-87
2022/08/21 19:01:17;;;;;;;2.53;2.20;;;20.20;99.90;;;18.78;100.00;99369.69;10270576;28;96770;-89
2022/08/21 19:06:20;;;;;;;2.72;2.42;;;20.20;99.90;;;18.73;100.00;99366.09;10273735;28;97144;-87
2022/08/21 19:11:24;;;;;;;3.92;2.53;;;20.10;99.90;;;18.68;100.00;99375.69;10284186;28;98595;-88
2022/08/21 19:16:27;;;;;;;3.55;3.25;;;20.00;99.90;;;18.63;100.00;99372.88;10271369;28;97258;-88
2022/08/21 19:21:31;;;;;;;4.15;3.75;;;20.00;99.90;;;18.62;100.00;99365.03;10263831;28;98815;-88
2022/08/21 19:26:34;;;;;;;5.03;4.53;;;20.00;99.90;;;18.58;100.00;99366.56;10270116;28;97378;-87
2022/08/21 19:31:43;;;;;;;5.82;5.32;;;19.90;99.90;;;18.52;100.00;99354.09;10254533;28;96746;-88
2022/08/21 19:36:46;;;;;;;6.07;4.85;;;19.90;99.90;;;18.49;100.00;99352.69;10268074;28;97505;-87
2022/08/21 19:41:55;;;;;;;4.93;4.43;;;19.80;99.90;;;18.46;100.00;99348.59;10269453;28;97287;-87
2022/08/21 19:46:59;;;;;;;4.72;4.32;;;19.80;99.90;;;18.45;100.00;99335.41;10263766;28;98602;-88
2022/08/21 19:52:07;;;;;;;4.63;3.70;;;19.80;99.90;;;18.42;100.00;99335.88;10269914;28;97645;-88
2022/08/21 19:57:16;;;;;;;4.15;2.97;;;19.80;99.90;;;18.41;100.00;99337.75;10274194;28;96771;-88
2022/08/21 20:02:19;;;;;;;5.22;3.10;;;19.80;99.90;;;18.38;100.00;99332.03;10266416;28;96923;-89
2022/08/21 20:07:22;;;;;;;3.40;2.70;;;19.80;99.90;;;18.36;100.00;99339.53;10271177;28;98548;-88
2022/08/21 20:12:29;;;;;;;4.28;2.72;;;19.70;99.90;;;18.33;100.00;99335.44;10266517;28;96905;-87
2022/08/21 20:17:31;;;;;;;4.05;3.10;;;19.70;99.90;;;18.31;100.00;99332.19;10263070;28;98208;-87
2022/08/21 20:22:35;;;;;;;3.45;3.10;;;19.70;99.90;;;18.28;100.00;99327.25;10265695;28;96810;-88
2022/08/21 20:27:38;;;;;;;4.63;3.90;;;19.70;99.90;;;18.25;100.00;99325.06;10271739;28;96560;-89
2022/08/21 20:33:01;;;;;;;5.65;4.18;;;19.60;99.90;;;18.22;100.00;99320.16;10253510;28;96873;-89
2022/08/21 20:38:05;;;;;;;5.03;3.58;;;19.60;99.90;;;18.18;100.00;99325.22;10281431;28;96704;-88
2022/08/21 20:43:10;;;;;;;5.22;3.58;;;19.60;99.90;;;18.14;100.00;99320.53;10254735;28;96686;-93
2022/08/21 20:48:27;;;;;;;4.78;3.63;;;19.50;99.90;;;18.08;100.00;99316.13;10251695;28;96952;-94
2022/08/21 20:53:59;;;;;;;4.38;3.58;;;19.50;99.90;;;18.02;100.00;99322.44;10271503;28;98008;-93
2022/08/21 20:59:32;;;;;;;4.40;3.17;;;19.40;99.90;;;17.96;100.00;99318.03;10268697;28;98593;-86
2022/08/21 21:04:54;;;;;;;4.05;2.75;;;19.40;99.90;;;17.93;100.00;99316.59;10265832;28;97006;-91
2022/08/21 21:10:04;;;;;;;4.57;2.95;;;19.30;99.90;;;17.91;100.00;99306.09;10273785;28;97406;-89
2022/08/21 21:15:19;;;;;;;4.10;3.10;;;19.30;99.90;;;17.92;100.00;99314.97;10256853;28;96939;-90
2022/08/21 21:20:45;;;;;;;3.80;3.35;;;19.30;99.90;;;17.90;100.00;99304.47;10263715;28;98452;-90